Time;durP1;ratioP1;P1;durP2;ratioP2;P2;SDS_P1;SDS_P2;PMS_P1;PMS_P2;Temp;Humidity;BMP_temperature;BMP_pressure;BME280_temperature;BME280_humidity;BME280_pressure;Samples;Min_cycle;Max_cycle;Signal;HPM_P1;HPM_P2
2022/06/23 00:00:47;;;;;;;;;;;21.40;93.00;;;;;;5071861;28;20097;-95
2022/06/23 00:03:19;;;;;;;;;;;21.30;93.00;;;;;;5091169;28;19984;-95
2022/06/23 00:05:47;;;;;;;;;;;21.30;93.00;;;;;;5076458;28;19913;-95
2022/06/23 00:08:16;;;;;;;;;;;21.30;93.10;;;;;;5090696;28;19938;-94
2022/06/23 00:10:47;;;;;;;;;;;21.30;93.20;;;;;;5076198;28;19999;-96
2022/06/23 00:13:14;;;;;;;;;;;21.30;93.30;;;;;;5091874;28;19978;-95
2022/06/23 00:15:43;;;;;;;;;;;21.30;93.30;;;;;;5076269;28;19935;-95
2022/06/23 00:18:17;;;;;;;;;;;21.30;93.30;;;;;;5091160;28;19912;-96
2022/06/23 00:20:45;;;;;;;;;;;21.30;93.30;;;;;;5090743;28;20256;-95
2022/06/23 00:23:15;;;;;;;;;;;21.30;93.40;;;;;;5093622;28;19920;-95
2022/06/23 00:25:45;;;;;;;;;;;21.20;93.30;;;;;;5075166;28;19990;-95
2022/06/23 00:28:21;;;;;;;;;;;21.20;93.30;;;;;;5074948;28;19927;-95
2022/06/23 00:30:51;;;;;;;;;;;21.20;93.40;;;;;;5078513;28;20480;-95
2022/06/23 00:33:19;;;;;;;;;;;21.20;93.40;;;;;;5091219;28;19939;-95
2022/06/23 00:35:47;;;;;;;;;;;21.20;93.40;;;;;;5095049;28;19912;-94
2022/06/23 00:38:21;;;;;;;;;;;21.20;93.40;;;;;;5076627;28;19909;-95
2022/06/23 00:40:51;;;;;;;;;;;21.20;93.50;;;;;;5090882;28;19921;-96
2022/06/23 00:43:18;;;;;;;;;;;21.20;93.50;;;;;;5078735;28;19913;-94
2022/06/23 00:45:47;;;;;;;;;;;21.10;93.50;;;;;;5093725;28;19913;-95
2022/06/23 00:48:18;;;;;;;;;;;21.10;93.50;;;;;;5074694;28;19923;-96
2022/06/23 00:50:48;;;;;;;;;;;21.10;93.50;;;;;;5072197;28;19928;-94
2022/06/23 00:53:17;;;;;;;;;;;21.10;93.60;;;;;;5073378;28;19912;-96
2022/06/23 00:55:49;;;;;;;;;;;21.10;93.60;;;;;;5079346;28;22159;-94
2022/06/23 00:58:22;;;;;;;;;;;21.10;93.60;;;;;;5073288;28;19912;-95
2022/06/23 01:00:51;;;;;;;;;;;21.10;93.70;;;;;;5072552;28;19908;-94
2022/06/23 01:03:21;;;;;;;;;;;21.10;93.80;;;;;;5079286;28;19931;-95
2022/06/23 01:05:51;;;;;;;;;;;21.10;93.80;;;;;;5092703;28;19930;-95
2022/06/23 01:08:22;;;;;;;;;;;21.10;93.90;;;;;;5073804;28;19925;-95
2022/06/23 01:10:53;;;;;;;;;;;21.00;93.80;;;;;;5095134;28;20062;-95
2022/06/23 01:13:26;;;;;;;;;;;21.00;93.80;;;;;;5086923;28;19933;-95
2022/06/23 01:15:55;;;;;;;;;;;21.00;93.90;;;;;;5078600;28;19952;-92
2022/06/23 01:18:26;;;;;;;;;;;21.00;93.80;;;;;;5075878;28;19924;-95
2022/06/23 01:20:58;;;;;;;;;;;20.90;93.80;;;;;;5090528;28;19921;-95
2022/06/23 01:23:44;;;;;;;;;;;21.00;93.90;;;;;;5093473;28;19974;-96
2022/06/23 01:29:15;;;;;;;;;;;20.90;93.90;;;;;;5067348;23;19932;-82
2022/06/23 01:31:45;;;;;;;;;;;20.90;93.90;;;;;;5045188;28;19925;-82
2022/06/23 01:34:17;;;;;;;;;;;20.90;93.90;;;;;;5044012;28;19925;-81
2022/06/23 01:36:47;;;;;;;;;;;20.90;94.00;;;;;;5067561;28;20018;-82
2022/06/23 01:39:15;;;;;;;;;;;20.90;94.00;;;;;;5046616;28;19956;-81
2022/06/23 01:41:44;;;;;;;;;;;20.80;94.00;;;;;;5061029;28;20345;-82
2022/06/23 01:44:17;;;;;;;;;;;20.80;94.00;;;;;;5062208;28;20387;-81
2022/06/23 01:46:45;;;;;;;;;;;20.80;94.10;;;;;;5063407;28;19932;-80
2022/06/23 01:49:14;;;;;;;;;;;20.80;94.00;;;;;;5063613;28;19929;-81
2022/06/23 01:51:42;;;;;;;;;;;20.80;94.00;;;;;;5049773;28;19978;-81
2022/06/23 01:54:12;;;;;;;;;;;20.80;94.10;;;;;;5047655;28;20361;-80
2022/06/23 01:56:45;;;;;;;;;;;20.80;94.10;;;;;;5044382;28;19994;-81
2022/06/23 01:59:20;;;;;;;;;;;20.80;94.10;;;;;;5047288;28;19929;-82
2022/06/23 02:01:50;;;;;;;;;;;20.70;94.10;;;;;;5028734;22;19960;-79
2022/06/23 02:04:21;;;;;;;;;;;20.70;94.10;;;;;;4976433;28;19961;-79
2022/06/23 02:06:51;;;;;;;;;;;20.70;94.10;;;;;;5042019;28;19980;-79
2022/06/23 02:09:22;;;;;;;;;;;20.70;94.10;;;;;;5025506;28;19961;-80
2022/06/23 02:11:50;;;;;;;;;;;20.70;94.20;;;;;;4947388;28;19926;-79
2022/06/23 02:14:24;;;;;;;;;;;20.70;94.20;;;;;;4956910;28;19927;-79
2022/06/23 02:16:53;;;;;;;;;;;20.60;94.20;;;;;;4970701;28;19948;-79
2022/06/23 02:19:24;;;;;;;;;;;20.60;94.20;;;;;;4950811;28;19936;-79
2022/06/23 02:21:52;;;;;;;;;;;20.60;94.30;;;;;;5005180;28;20372;-79
2022/06/23 02:24:24;;;;;;;;;;;20.60;94.30;;;;;;4958823;28;19933;-79
2022/06/23 02:26:57;;;;;;;;;;;20.60;94.30;;;;;;4952300;28;19926;-79
2022/06/23 02:29:28;;;;;;;;;;;20.60;94.40;;;;;;4947828;28;20347;-79
2022/06/23 02:31:58;;;;;;;;;;;20.60;94.30;;;;;;5029521;28;19926;-79
2022/06/23 02:34:28;;;;;;;;;;;20.60;94.40;;;;;;4957257;28;20444;-79
2022/06/23 02:37:01;;;;;;;;;;;20.60;94.40;;;;;;4948799;28;20028;-80
2022/06/23 02:39:31;;;;;;;;;;;20.60;94.40;;;;;;5015063;28;19927;-79
2022/06/23 02:42:00;;;;;;;;;;;20.50;94.30;;;;;;4959059;28;20007;-80
2022/06/23 02:44:45;;;;;;;;;;;20.50;94.40;;;;;;4961723;28;20300;-79
2022/06/23 02:47:19;;;;;;;;;;;20.50;94.50;;;;;;4943958;28;19930;-79
2022/06/23 02:50:03;;;;;;;;;;;20.50;94.50;;;;;;4951028;28;19953;-78
2022/06/23 02:52:44;;;;;;;;;;;20.50;94.50;;;;;;4943387;28;19969;-79
2022/06/23 02:55:18;;;;;;;;;;;20.50;94.50;;;;;;4974725;28;19981;-79
2022/06/23 02:57:49;;;;;;;;;;;20.50;94.50;;;;;;4962062;28;19996;-79
2022/06/23 03:00:22;;;;;;;;;;;20.50;94.50;;;;;;4980722;28;19975;-79
2022/06/23 03:02:56;;;;;;;;;;;20.50;94.50;;;;;;5037375;28;20350;-79
2022/06/23 03:05:28;;;;;;;;;;;20.40;94.50;;;;;;5044953;28;19949;-78
2022/06/23 03:07:57;;;;;;;;;;;20.50;94.60;;;;;;5041144;28;19928;-79
2022/06/23 03:10:26;;;;;;;;;;;20.40;94.60;;;;;;5043801;28;20302;-78
2022/06/23 03:12:56;;;;;;;;;;;20.40;94.60;;;;;;5041225;28;19935;-79
2022/06/23 03:15:26;;;;;;;;;;;20.40;94.60;;;;;;5043255;28;20019;-79
2022/06/23 03:17:55;;;;;;;;;;;20.40;94.70;;;;;;5042774;28;19951;-79
2022/06/23 03:20:28;;;;;;;;;;;20.40;94.70;;;;;;5048606;28;19940;-78
2022/06/23 03:22:58;;;;;;;;;;;20.40;94.70;;;;;;5026830;28;19925;-78
2022/06/23 03:25:27;;;;;;;;;;;20.40;94.70;;;;;;5052927;28;19932;-79
2022/06/23 03:27:58;;;;;;;;;;;20.40;94.70;;;;;;5032741;28;19951;-79
2022/06/23 03:30:30;;;;;;;;;;;20.30;94.60;;;;;;5050817;28;20011;-79
2022/06/23 03:32:59;;;;;;;;;;;20.30;94.70;;;;;;5035854;28;19936;-79
2022/06/23 03:35:28;;;;;;;;;;;20.30;94.70;;;;;;5038953;28;19924;-79
2022/06/23 03:37:59;;;;;;;;;;;20.30;94.70;;;;;;5044707;28;19947;-78
2022/06/23 03:43:19;;;;;;;;;;;20.30;94.70;;;;;;5035980;28;20440;-79
2022/06/23 03:45:50;;;;;;;;;;;20.30;94.70;;;;;;5042570;28;19924;-79
2022/06/23 03:48:20;;;;;;;;;;;20.30;94.70;;;;;;5042447;28;19933;-79
2022/06/23 03:50:49;;;;;;;;;;;20.30;94.70;;;;;;5020768;28;19963;-79
2022/06/23 03:53:18;;;;;;;;;;;20.30;94.80;;;;;;5028723;28;20306;-79
2022/06/23 03:55:47;;;;;;;;;;;20.20;94.70;;;;;;5032194;28;19925;-79
2022/06/23 03:58:16;;;;;;;;;;;20.20;94.80;;;;;;5035652;28;19982;-79
2022/06/23 04:00:46;;;;;;;;;;;20.20;94.80;;;;;;5031643;28;20350;-78
2022/06/23 04:03:21;;;;;;;;;;;20.20;94.80;;;;;;5037367;28;19933;-79
2022/06/23 04:06:03;;;;;;;;;;;20.20;94.90;;;;;;5034276;28;19929;-78
2022/06/23 04:08:30;;;;;;;;;;;20.20;94.90;;;;;;5036584;28;19925;-79
2022/06/23 04:11:42;;;;;;;;;;;20.20;94.90;;;;;;5021303;28;19929;-79
2022/06/23 04:13:46;;;;;;;;;;;20.20;94.90;;;;;;5035538;28;20027;-80
2022/06/23 04:16:13;;;;;;;;;;;20.20;94.90;;;;;;5035627;28;19940;-80
2022/06/23 04:18:42;;;;;;;;;;;20.10;94.90;;;;;;5043319;28;20343;-80
2022/06/23 04:21:10;;;;;;;;;;;20.20;95.00;;;;;;5036874;28;19939;-80
2022/06/23 04:23:40;;;;;;;;;;;20.10;95.10;;;;;;5014082;28;19932;-79
2022/06/23 04:26:07;;;;;;;;;;;20.10;95.10;;;;;;5036447;28;19929;-78
2022/06/23 04:28:44;;;;;;;;;;;20.10;95.10;;;;;;5036828;28;19933;-79
2022/06/23 04:31:16;;;;;;;;;;;20.10;95.00;;;;;;5033982;28;19925;-79
2022/06/23 04:33:45;;;;;;;;;;;20.10;95.00;;;;;;5041426;28;19940;-78
2022/06/23 04:36:17;;;;;;;;;;;20.10;95.00;;;;;;5034090;28;19982;-78
2022/06/23 04:38:47;;;;;;;;;;;20.10;95.00;;;;;;5026038;28;20546;-79
2022/06/23 04:41:18;;;;;;;;;;;20.10;95.50;;;;;;5044119;28;19931;-79
2022/06/23 04:43:47;;;;;;;;;;;20.10;95.80;;;;;;5043980;28;19925;-79
2022/06/23 04:46:16;;;;;;;;;;;20.10;95.80;;;;;;5043696;28;19948;-80
2022/06/23 04:48:49;;;;;;;;;;;20.10;95.80;;;;;;5042205;28;19948;-77
2022/06/23 04:51:19;;;;;;;;;;;20.10;95.70;;;;;;5043055;28;19932;-78
2022/06/23 04:53:51;;;;;;;;;;;20.10;95.80;;;;;;5036420;28;19932;-78
2022/06/23 04:56:25;;;;;;;;;;;20.10;95.70;;;;;;5027154;28;20030;-81
2022/06/23 04:58:53;;;;;;;;;;;20.10;95.70;;;;;;5044664;28;19936;-79
2022/06/23 05:01:22;;;;;;;;;;;20.00;95.50;;;;;;5041833;28;19933;-81
2022/06/23 05:03:52;;;;;;;;;;;20.10;95.50;;;;;;5043464;28;19971;-80
2022/06/23 05:06:22;;;;;;;;;;;20.00;95.40;;;;;;5045011;28;19925;-80
2022/06/23 05:08:50;;;;;;;;;;;20.00;95.40;;;;;;5045710;28;19925;-78
2022/06/23 05:11:21;;;;;;;;;;;20.00;95.30;;;;;;5040552;28;20018;-79
2022/06/23 05:13:49;;;;;;;;;;;20.00;95.30;;;;;;5047558;28;20310;-78
2022/06/23 05:16:20;;;;;;;;;;;20.00;95.80;;;;;;5041125;28;19940;-78
2022/06/23 05:18:49;;;;;;;;;;;20.10;96.20;;;;;;5042800;28;20032;-78
2022/06/23 05:21:19;;;;;;;;;;;20.00;96.20;;;;;;5043385;28;19925;-77
2022/06/23 05:23:50;;;;;;;;;;;20.00;96.10;;;;;;5035451;28;19936;-76
2022/06/23 05:26:21;;;;;;;;;;;20.00;96.10;;;;;;5049955;28;19928;-75
2022/06/23 05:28:50;;;;;;;;;;;20.00;96.00;;;;;;5047398;28;20353;-76
2022/06/23 05:31:21;;;;;;;;;;;20.00;96.00;;;;;;5038413;28;20399;-76
2022/06/23 05:33:49;;;;;;;;;;;20.00;95.90;;;;;;5031662;28;19940;-76
2022/06/23 05:36:20;;;;;;;;;;;20.00;95.80;;;;;;5041361;28;20354;-76
2022/06/23 05:38:48;;;;;;;;;;;20.00;95.70;;;;;;5040697;28;19955;-76
2022/06/23 05:41:18;;;;;;;;;;;20.00;95.70;;;;;;5036005;28;20395;-76
2022/06/23 05:43:46;;;;;;;;;;;20.00;95.60;;;;;;5043512;28;19978;-76
2022/06/23 05:46:17;;;;;;;;;;;20.00;95.60;;;;;;5049292;28;20169;-76
2022/06/23 05:48:46;;;;;;;;;;;20.00;95.60;;;;;;5049801;28;19929;-76
2022/06/23 05:51:16;;;;;;;;;;;20.00;95.60;;;;;;5047523;28;19993;-76
2022/06/23 05:53:57;;;;;;;;;;;20.00;95.50;;;;;;5050566;28;20353;-75
2022/06/23 05:56:26;;;;;;;;;;;20.00;95.40;;;;;;5028254;28;19931;-76
2022/06/23 05:58:56;;;;;;;;;;;20.00;95.30;;;;;;5046270;28;20459;-76
2022/06/23 06:01:25;;;;;;;;;;;20.00;95.30;;;;;;5055119;28;19928;-76
2022/06/23 06:03:55;;;;;;;;;;;20.00;95.30;;;;;;5048504;28;19924;-76
2022/06/23 06:06:22;;;;;;;;;;;20.00;95.10;;;;;;5030986;28;19968;-76
2022/06/23 06:11:36;;;;;;;;;;;19.90;95.00;;;;;;5051867;28;19933;-76
2022/06/23 06:14:05;;;;;;;;;;;20.00;95.00;;;;;;5049122;28;20019;-76
2022/06/23 06:16:32;;;;;;;;;;;19.90;94.90;;;;;;5048021;28;19942;-76
2022/06/23 06:19:00;;;;;;;;;;;19.90;94.90;;;;;;5045949;28;20019;-75
2022/06/23 06:21:27;;;;;;;;;;;19.90;94.80;;;;;;5052018;28;20411;-76
2022/06/23 06:23:57;;;;;;;;;;;19.90;94.80;;;;;;5044569;28;19939;-76
2022/06/23 06:26:29;;;;;;;;;;;19.90;94.70;;;;;;5029591;28;20359;-76
2022/06/23 06:28:57;;;;;;;;;;;19.90;94.70;;;;;;5048443;28;19925;-76
2022/06/23 06:31:25;;;;;;;;;;;19.90;94.70;;;;;;5028816;28;20371;-75
2022/06/23 06:33:55;;;;;;;;;;;19.90;94.60;;;;;;5048744;28;20454;-76
2022/06/23 06:36:31;;;;;;;;;;;19.90;94.60;;;;;;5046815;28;20413;-76
2022/06/23 06:39:01;;;;;;;;;;;19.90;94.50;;;;;;5031233;28;19936;-76
2022/06/23 06:41:28;;;;;;;;;;;19.90;94.50;;;;;;5042854;28;20382;-76
2022/06/23 06:43:57;;;;;;;;;;;19.90;94.50;;;;;;5048911;28;20325;-76
2022/06/23 06:46:24;;;;;;;;;;;19.90;94.80;;;;;;5031209;28;19992;-76
2022/06/23 06:48:50;;;;;;;;;;;20.00;94.50;;;;;;5047141;28;19925;-76
2022/06/23 06:51:20;;;;;;;;;;;20.00;94.40;;;;;;5045994;28;19929;-75
2022/06/23 06:53:50;;;;;;;;;;;20.00;94.40;;;;;;5048656;28;19935;-76
2022/06/23 06:56:19;;;;;;;;;;;20.00;94.40;;;;;;5047824;28;21312;-76
2022/06/23 06:58:47;;;;;;;;;;;19.90;94.40;;;;;;5049112;28;19979;-76
2022/06/23 07:01:17;;;;;;;;;;;20.00;94.40;;;;;;5039837;28;20012;-76
2022/06/23 07:03:45;;;;;;;;;;;20.00;94.40;;;;;;5051071;28;19924;-76
2022/06/23 07:06:15;;;;;;;;;;;20.00;94.40;;;;;;5044705;28;20384;-76
2022/06/23 07:08:44;;;;;;;;;;;20.00;94.40;;;;;;5047045;28;19932;-76
2022/06/23 07:11:13;;;;;;;;;;;20.00;94.50;;;;;;5048421;28;19931;-76
2022/06/23 07:13:44;;;;;;;;;;;20.00;94.50;;;;;;5031581;28;19925;-75
2022/06/23 07:16:13;;;;;;;;;;;20.00;94.50;;;;;;5045220;28;20294;-76
2022/06/23 07:18:43;;;;;;;;;;;20.00;94.50;;;;;;5047861;28;19924;-76
2022/06/23 07:21:17;;;;;;;;;;;20.10;94.50;;;;;;5047097;28;19929;-76
2022/06/23 07:23:48;;;;;;;;;;;20.10;94.60;;;;;;5040542;28;19924;-76
2022/06/23 07:26:32;;;;;;;;;;;20.10;94.60;;;;;;5029886;28;19932;-76
2022/06/23 07:29:03;;;;;;;;;;;20.10;94.70;;;;;;5031341;28;19945;-76
2022/06/23 07:31:31;;;;;;;;;;;20.10;94.80;;;;;;5045947;28;19936;-76
2022/06/23 07:34:01;;;;;;;;;;;20.10;94.80;;;;;;5045722;28;19931;-76
2022/06/23 07:36:32;;;;;;;;;;;20.20;94.90;;;;;;5052941;28;19970;-76
2022/06/23 07:39:03;;;;;;;;;;;20.10;94.80;;;;;;5050808;28;19931;-76
2022/06/23 07:41:35;;;;;;;;;;;20.20;94.90;;;;;;5040059;28;19928;-76
2022/06/23 07:44:04;;;;;;;;;;;20.20;94.90;;;;;;5048494;28;19924;-76
2022/06/23 07:46:34;;;;;;;;;;;20.20;94.90;;;;;;5046428;28;19928;-76
2022/06/23 07:49:01;;;;;;;;;;;20.20;95.00;;;;;;5049002;28;20373;-76
2022/06/23 07:51:28;;;;;;;;;;;20.30;95.30;;;;;;5042841;28;20434;-76
2022/06/23 07:53:56;;;;;;;;;;;20.30;95.00;;;;;;5048600;28;19947;-76
2022/06/23 07:56:24;;;;;;;;;;;20.30;95.30;;;;;;5050154;28;19925;-75
2022/06/23 07:58:52;;;;;;;;;;;20.30;95.00;;;;;;5048891;28;19931;-76
2022/06/23 08:01:27;;;;;;;;;;;20.30;95.10;;;;;;5031614;22;20383;-74
2022/06/23 08:03:57;;;;;;;;;;;20.30;95.10;;;;;;5026193;28;20097;-76
2022/06/23 08:06:25;;;;;;;;;;;20.40;95.20;;;;;;5041378;28;19951;-76
2022/06/23 08:08:55;;;;;;;;;;;20.40;95.20;;;;;;5044453;28;20294;-77
2022/06/23 08:14:11;;;;;;;;;;;20.40;95.20;;;;;;5093889;22;19937;-76
2022/06/23 08:16:53;;;;;;;;;;;20.40;95.30;;;;;;5023578;28;19933;-75
2022/06/23 08:19:28;;;;;;;;;;;20.50;95.80;;;;;;5016799;28;19925;-77
2022/06/23 08:21:57;;;;;;;;;;;20.50;95.50;;;;;;5020207;28;19955;-79
2022/06/23 08:24:24;;;;;;;;;;;20.50;95.50;;;;;;5010469;28;19925;-78
2022/06/23 08:26:54;;;;;;;;;;;20.50;95.60;;;;;;5019747;28;20395;-77
2022/06/23 08:29:23;;;;;;;;;;;20.50;95.60;;;;;;5017775;28;19933;-76
2022/06/23 08:31:51;;;;;;;;;;;20.50;95.70;;;;;;5017177;28;19983;-79
2022/06/23 08:34:18;;;;;;;;;;;20.50;95.70;;;;;;5014872;28;19936;-80
2022/06/23 08:36:48;;;;;;;;;;;20.50;95.70;;;;;;5026723;28;19932;-79
2022/06/23 08:39:16;;;;;;;;;;;20.60;95.70;;;;;;5023822;28;20137;-76
2022/06/23 08:41:45;;;;;;;;;;;20.50;95.60;;;;;;5023422;28;19932;-77
2022/06/23 08:44:14;;;;;;;;;;;20.60;95.70;;;;;;5023346;28;20213;-78
2022/06/23 08:46:45;;;;;;;;;;;20.60;95.70;;;;;;5005421;28;19980;-78
2022/06/23 08:49:21;;;;;;;;;;;20.60;95.70;;;;;;5028490;28;19929;-78
2022/06/23 08:51:56;;;;;;;;;;;20.60;95.70;;;;;;5027104;28;19925;-78
2022/06/23 08:54:26;;;;;;;;;;;20.60;95.70;;;;;;5023115;28;19941;-80
2022/06/23 08:56:57;;;;;;;;;;;20.70;95.80;;;;;;5022590;28;19939;-79
2022/06/23 08:59:30;;;;;;;;;;;20.60;95.70;;;;;;5020518;28;19929;-79
2022/06/23 09:02:01;;;;;;;;;;;20.60;95.70;;;;;;5018732;28;20339;-79
2022/06/23 09:04:42;;;;;;;;;;;20.70;95.70;;;;;;5018191;28;20036;-77
2022/06/23 09:07:14;;;;;;;;;;;20.70;95.70;;;;;;5026959;28;19952;-79
2022/06/23 09:09:43;;;;;;;;;;;20.70;95.60;;;;;;5030766;28;19940;-77
2022/06/23 09:12:14;;;;;;;;;;;20.70;95.60;;;;;;5008752;28;19935;-77
2022/06/23 09:14:56;;;;;;;;;;;20.70;95.60;;;;;;5028671;28;19929;-78
2022/06/23 09:17:31;;;;;;;;;;;20.70;95.60;;;;;;5022727;28;19926;-80
2022/06/23 09:20:10;;;;;;;;;;;20.70;95.60;;;;;;5021436;28;19971;-79
2022/06/23 09:22:44;;;;;;;;;;;20.80;95.60;;;;;;5030817;28;19937;-80
2022/06/23 09:25:16;;;;;;;;;;;20.70;95.50;;;;;;5027595;28;19933;-79
2022/06/23 09:27:58;;;;;;;;;;;20.80;95.60;;;;;;5017234;28;19926;-78
2022/06/23 09:30:31;;;;;;;;;;;20.80;95.60;;;;;;5007184;28;19925;-78
2022/06/23 09:33:00;;;;;;;;;;;20.80;95.60;;;;;;5026799;28;19925;-78
2022/06/23 09:35:36;;;;;;;;;;;20.80;95.60;;;;;;5010466;28;20284;-79
2022/06/23 09:38:12;;;;;;;;;;;20.80;95.50;;;;;;5028121;28;19925;-78
2022/06/23 09:40:52;;;;;;;;;;;20.80;95.50;;;;;;5030032;28;20379;-78
2022/06/23 09:43:44;;;;;;;;;;;20.80;95.40;;;;;;5027941;28;20347;-79
2022/06/23 09:46:49;;;;;;;;;;;20.90;95.30;;;;;;4996233;28;20432;-79
2022/06/23 09:49:32;;;;;;;;;;;20.90;95.50;;;;;;5024324;28;19933;-78
2022/06/23 09:52:07;;;;;;;;;;;20.90;95.20;;;;;;5026483;28;19956;-79
2022/06/23 09:54:39;;;;;;;;;;;20.90;95.20;;;;;;5027471;28;20379;-79
2022/06/23 09:57:25;;;;;;;;;;;20.90;95.20;;;;;;5029776;28;19934;-78
2022/06/23 10:00:10;;;;;;;;;;;20.90;95.20;;;;;;5029493;28;19972;-78
2022/06/23 10:02:46;;;;;;;;;;;20.90;95.10;;;;;;5028815;28;20020;-78
2022/06/23 10:05:31;;;;;;;;;;;21.00;95.20;;;;;;5035222;28;20964;-78
2022/06/23 10:08:06;;;;;;;;;;;21.00;95.20;;;;;;5032683;28;19979;-78
2022/06/23 10:10:43;;;;;;;;;;;21.00;95.20;;;;;;5032685;28;20409;-79
2022/06/23 10:13:23;;;;;;;;;;;21.00;95.20;;;;;;5033492;28;19933;-77
2022/06/23 10:16:04;;;;;;;;;;;21.10;95.20;;;;;;5037660;28;19928;-78
2022/06/23 10:18:47;;;;;;;;;;;21.10;95.20;;;;;;5029430;28;19999;-78
2022/06/23 10:21:22;;;;;;;;;;;21.10;95.30;;;;;;5013110;28;19979;-79
2022/06/23 10:24:06;;;;;;;;;;;21.10;95.20;;;;;;5014579;28;19993;-78
2022/06/23 10:26:40;;;;;;;;;;;21.10;95.20;;;;;;5033173;28;19929;-78
2022/06/23 10:29:14;;;;;;;;;;;21.10;95.20;;;;;;5031447;28;20414;-79
2022/06/23 10:31:48;;;;;;;;;;;21.10;95.10;;;;;;5012206;28;19933;-77
2022/06/23 10:34:26;;;;;;;;;;;21.10;95.10;;;;;;5030751;28;19978;-78
2022/06/23 10:37:11;;;;;;;;;;;21.20;95.00;;;;;;5032876;28;19971;-78
2022/06/23 10:39:50;;;;;;;;;;;21.20;95.00;;;;;;5029683;28;20388;-78
2022/06/23 10:42:27;;;;;;;;;;;21.20;95.00;;;;;;5024698;28;19925;-78
2022/06/23 10:45:03;;;;;;;;;;;21.20;95.00;;;;;;5030318;28;19964;-78
2022/06/23 10:47:49;;;;;;;;;;;21.20;95.00;;;;;;5026417;28;20261;-78
2022/06/23 10:50:22;;;;;;;;;;;21.20;95.00;;;;;;5008094;28;20261;-77
2022/06/23 10:53:09;;;;;;;;;;;21.30;95.00;;;;;;5033479;28;19932;-79
2022/06/23 10:55:50;;;;;;;;;;;21.30;95.00;;;;;;4999463;28;19929;-77
2022/06/23 10:58:26;;;;;;;;;;;21.30;95.00;;;;;;5032599;28;19925;-77
2022/06/23 11:00:58;;;;;;;;;;;21.30;95.00;;;;;;5011172;28;19975;-76
2022/06/23 11:03:34;;;;;;;;;;;21.30;95.00;;;;;;5023964;28;19964;-77
2022/06/23 11:06:11;;;;;;;;;;;21.30;94.90;;;;;;5009803;28;19925;-78
2022/06/23 11:08:50;;;;;;;;;;;21.40;95.00;;;;;;5014457;28;19983;-79
2022/06/23 11:11:28;;;;;;;;;;;21.40;94.90;;;;;;5024243;28;20418;-79
2022/06/23 11:13:58;;;;;;;;;;;21.40;94.90;;;;;;5033064;28;20399;-78
2022/06/23 11:16:30;;;;;;;;;;;21.40;94.90;;;;;;5034015;28;20355;-78
2022/06/23 11:19:07;;;;;;;;;;;21.40;94.80;;;;;;5029567;28;20288;-78
2022/06/23 11:21:41;;;;;;;;;;;21.50;94.90;;;;;;5028180;28;19925;-78
2022/06/23 11:24:16;;;;;;;;;;;21.50;94.80;;;;;;5013760;28;20438;-78
2022/06/23 11:26:52;;;;;;;;;;;21.50;94.80;;;;;;5036376;28;20457;-80
2022/06/23 11:29:30;;;;;;;;;;;21.50;94.70;;;;;;5015667;28;19928;-77
2022/06/23 11:32:02;;;;;;;;;;;21.60;94.60;;;;;;5030014;28;19926;-77
2022/06/23 11:34:39;;;;;;;;;;;21.60;94.50;;;;;;5029454;28;19939;-79
2022/06/23 11:37:14;;;;;;;;;;;21.70;94.50;;;;;;5027992;28;19931;-79
2022/06/23 11:39:47;;;;;;;;;;;21.70;94.40;;;;;;5043090;28;20363;-79
2022/06/23 11:42:22;;;;;;;;;;;21.70;94.40;;;;;;5039595;28;19925;-78
2022/06/23 11:44:55;;;;;;;;;;;21.70;94.40;;;;;;5034136;28;19926;-78
2022/06/23 11:47:28;;;;;;;;;;;21.80;94.40;;;;;;5021807;28;19932;-79
2022/06/23 11:49:59;;;;;;;;;;;21.80;94.50;;;;;;5036387;28;19925;-77
2022/06/23 11:52:33;;;;;;;;;;;21.80;94.40;;;;;;5014830;28;19925;-76
2022/06/23 11:55:19;;;;;;;;;;;21.80;94.40;;;;;;5030880;28;19931;-78
2022/06/23 11:57:59;;;;;;;;;;;21.90;94.50;;;;;;5035283;28;19925;-78
2022/06/23 12:00:29;;;;;;;;;;;21.90;94.50;;;;;;5021299;28;19925;-78
2022/06/23 12:03:06;;;;;;;;;;;22.00;94.50;;;;;;5035010;28;19925;-78
2022/06/23 12:05:37;;;;;;;;;;;22.00;94.70;;;;;;5036752;28;19933;-79
2022/06/23 12:08:23;;;;;;;;;;;22.00;94.80;;;;;;5020201;28;19987;-78
2022/06/23 12:10:53;;;;;;;;;;;22.00;94.90;;;;;;5029965;28;19968;-78
2022/06/23 12:13:22;;;;;;;;;;;22.10;94.90;;;;;;5031980;28;19940;-78
2022/06/23 12:15:50;;;;;;;;;;;22.10;94.80;;;;;;5034930;28;19937;-78
2022/06/23 12:18:20;;;;;;;;;;;22.20;94.80;;;;;;5028845;28;19929;-79
2022/06/23 12:20:50;;;;;;;;;;;22.20;94.90;;;;;;5007473;28;19979;-78
2022/06/23 12:23:20;;;;;;;;;;;22.20;94.90;;;;;;5014993;28;19936;-79
2022/06/23 12:25:52;;;;;;;;;;;22.30;95.00;;;;;;5035118;28;20385;-79
2022/06/23 12:28:24;;;;;;;;;;;22.30;95.00;;;;;;5034780;28;19971;-76
2022/06/23 12:30:55;;;;;;;;;;;22.40;95.00;;;;;;5035377;28;20311;-79
2022/06/23 12:33:23;;;;;;;;;;;22.40;94.90;;;;;;5035018;28;19925;-79
2022/06/23 12:35:54;;;;;;;;;;;22.40;94.80;;;;;;5034502;28;20020;-79
2022/06/23 12:38:22;;;;;;;;;;;22.40;94.80;;;;;;5012632;28;19936;-78
2022/06/23 12:40:54;;;;;;;;;;;22.50;94.90;;;;;;5029697;28;19925;-79
2022/06/23 12:43:29;;;;;;;;;;;22.60;94.90;;;;;;5033169;28;19935;-77
2022/06/23 12:46:03;;;;;;;;;;;22.60;95.00;;;;;;5025985;28;19925;-80
2022/06/23 12:48:37;;;;;;;;;;;22.70;95.00;;;;;;5032250;28;19933;-79
2022/06/23 12:51:10;;;;;;;;;;;22.70;94.90;;;;;;5039471;28;19975;-79
2022/06/23 12:53:48;;;;;;;;;;;22.80;94.90;;;;;;5030261;28;19933;-79
2022/06/23 12:56:28;;;;;;;;;;;22.80;95.00;;;;;;5030821;28;19944;-80
2022/06/23 12:59:03;;;;;;;;;;;22.90;95.00;;;;;;5029671;28;20288;-79
2022/06/23 13:01:37;;;;;;;;;;;22.90;95.00;;;;;;5038311;28;19924;-79
2022/06/23 13:04:06;;;;;;;;;;;23.00;95.00;;;;;;5031772;28;19925;-78
2022/06/23 13:06:37;;;;;;;;;;;23.00;94.90;;;;;;5043022;28;19936;-78
2022/06/23 13:09:10;;;;;;;;;;;23.10;94.80;;;;;;5007875;22;19982;-84
2022/06/23 13:11:40;;;;;;;;;;;23.10;94.70;;;;;;5065931;22;19924;-80
2022/06/23 13:14:12;;;;;;;;;;;23.20;94.80;;;;;;5076757;28;19978;-81
2022/06/23 13:16:42;;;;;;;;;;;23.20;94.80;;;;;;5069753;28;19932;-80
2022/06/23 13:19:13;;;;;;;;;;;23.30;94.90;;;;;;5044921;28;19982;-80
2022/06/23 13:21:41;;;;;;;;;;;23.30;94.90;;;;;;5061884;28;19971;-79
2022/06/23 13:24:10;;;;;;;;;;;23.40;95.00;;;;;;5062940;28;19933;-78
2022/06/23 13:26:38;;;;;;;;;;;23.50;95.00;;;;;;5069348;28;19928;-79
2022/06/23 13:29:06;;;;;;;;;;;23.50;94.90;;;;;;5064999;28;19924;-78
2022/06/23 13:31:39;;;;;;;;;;;23.50;94.80;;;;;;5075504;28;19924;-79
2022/06/23 13:34:07;;;;;;;;;;;23.60;94.70;;;;;;5054015;28;20345;-79
2022/06/23 13:36:40;;;;;;;;;;;23.60;94.60;;;;;;5069482;28;19925;-78
2022/06/23 13:39:20;;;;;;;;;;;23.70;94.50;;;;;;5054277;28;19924;-79
2022/06/23 13:41:50;;;;;;;;;;;23.70;94.30;;;;;;5061215;28;19964;-80
2022/06/23 13:44:24;;;;;;;;;;;23.80;94.40;;;;;;5067056;28;19928;-80
2022/06/23 13:46:55;;;;;;;;;;;23.80;94.40;;;;;;5049591;28;20011;-78
2022/06/23 13:49:24;;;;;;;;;;;23.90;94.50;;;;;;5051374;28;20043;-78
2022/06/23 13:51:52;;;;;;;;;;;24.00;93.60;;;;;;5064447;28;19932;-77
2022/06/23 13:54:24;;;;;;;;;;;24.00;93.90;;;;;;5070212;28;19924;-79
2022/06/23 13:56:54;;;;;;;;;;;24.10;94.00;;;;;;5055427;28;19932;-79
2022/06/23 13:59:25;;;;;;;;;;;24.10;94.00;;;;;;5064000;28;20012;-78
2022/06/23 14:01:54;;;;;;;;;;;24.20;94.10;;;;;;5040174;28;19939;-80
2022/06/23 14:04:24;;;;;;;;;;;24.30;94.10;;;;;;5065933;28;19925;-79
2022/06/23 14:06:53;;;;;;;;;;;24.30;94.00;;;;;;5053002;28;19931;-79
2022/06/23 14:09:22;;;;;;;;;;;24.40;94.30;;;;;;5046462;28;19929;-80
2022/06/23 14:11:53;;;;;;;;;;;24.40;94.00;;;;;;5049369;28;19986;-80
2022/06/23 14:14:21;;;;;;;;;;;24.50;94.10;;;;;;5052440;28;19940;-80
2022/06/23 14:16:52;;;;;;;;;;;24.50;94.00;;;;;;5055194;28;20985;-82
2022/06/23 14:19:23;;;;;;;;;;;24.60;94.10;;;;;;5066588;28;20352;-80
2022/06/23 14:21:54;;;;;;;;;;;24.60;94.00;;;;;;5052009;28;20408;-79
2022/06/23 14:24:23;;;;;;;;;;;24.70;93.90;;;;;;5072013;28;19978;-81
2022/06/23 14:26:56;;;;;;;;;;;24.70;93.60;;;;;;5071207;28;19928;-80
2022/06/23 14:29:27;;;;;;;;;;;24.70;93.40;;;;;;5067563;28;19997;-81
2022/06/23 14:31:56;;;;;;;;;;;24.80;93.40;;;;;;5072128;28;19951;-80
2022/06/23 14:34:28;;;;;;;;;;;24.90;93.40;;;;;;5052819;28;19994;-81
2022/06/23 14:36:56;;;;;;;;;;;24.90;93.30;;;;;;5071923;28;19932;-83
2022/06/23 14:39:27;;;;;;;;;;;25.00;92.90;;;;;;5069041;28;19924;-83
2022/06/23 14:42:10;;;;;;;;;;;25.00;92.90;;;;;;5048697;28;20354;-83
2022/06/23 14:44:47;;;;;;;;;;;25.10;93.00;;;;;;5066921;28;19935;-83
2022/06/23 14:47:20;;;;;;;;;;;25.10;93.10;;;;;;5067972;28;20486;-82
2022/06/23 14:49:59;;;;;;;;;;;25.20;93.20;;;;;;5058303;28;19932;-83
2022/06/23 14:52:29;;;;;;;;;;;25.20;93.20;;;;;;5071333;28;19924;-82
2022/06/23 14:55:00;;;;;;;;;;;25.30;93.20;;;;;;5065876;28;19924;-81